sensor_id;sensor_type;location;lat;lon;timestamp;P1;durP1;ratioP1;P2;durP2;ratioP2
5650;SDS011;40241;52.684;9.758;2022-11-20T00:00:42;9.87;;;6.30;;
5650;SDS011;40241;52.684;9.758;2022-11-20T00:03:08;10.73;;;7.10;;
5650;SDS011;40241;52.684;9.758;2022-11-20T00:05:33;8.80;;;5.70;;
5650;SDS011;40241;52.684;9.758;2022-11-20T00:07:59;9.60;;;7.00;;
5650;SDS011;40241;52.684;9.758;2022-11-20T00:10:24;8.23;;;6.33;;
5650;SDS011;40241;52.684;9.758;2022-11-20T00:12:50;7.13;;;5.43;;
5650;SDS011;40241;52.684;9.758;2022-11-20T00:15:15;9.23;;;6.80;;
5650;SDS011;40241;52.684;9.758;2022-11-20T00:17:41;7.90;;;5.77;;
5650;SDS011;40241;52.684;9.758;2022-11-20T00:20:06;8.17;;;6.00;;
5650;SDS011;40241;52.684;9.758;2022-11-20T00:22:32;9.47;;;6.43;;
5650;SDS011;40241;52.684;9.758;2022-11-20T00:24:58;9.40;;;6.50;;
5650;SDS011;40241;52.684;9.758;2022-11-20T00:27:23;8.80;;;6.63;;
5650;SDS011;40241;52.684;9.758;2022-11-20T00:29:49;8.90;;;6.10;;
5650;SDS011;40241;52.684;9.758;2022-11-20T00:32:14;8.80;;;5.90;;
5650;SDS011;40241;52.684;9.758;2022-11-20T00:34:40;7.40;;;5.83;;
5650;SDS011;40241;52.684;9.758;2022-11-20T00:37:05;10.77;;;6.77;;
5650;SDS011;40241;52.684;9.758;2022-11-20T00:39:31;9.33;;;6.00;;
5650;SDS011;40241;52.684;9.758;2022-11-20T00:41:56;6.07;;;5.40;;
5650;SDS011;40241;52.684;9.758;2022-11-20T00:44:22;8.30;;;5.87;;
5650;SDS011;40241;52.684;9.758;2022-11-20T00:46:47;8.37;;;6.00;;
5650;SDS011;40241;52.684;9.758;2022-11-20T00:49:13;7.70;;;6.03;;
5650;SDS011;40241;52.684;9.758;2022-11-20T00:51:38;8.63;;;6.03;;
5650;SDS011;40241;52.684;9.758;2022-11-20T00:54:05;9.30;;;5.77;;
5650;SDS011;40241;52.684;9.758;2022-11-20T00:56:30;9.20;;;6.20;;
5650;SDS011;40241;52.684;9.758;2022-11-20T00:58:58;8.73;;;6.10;;
5650;SDS011;40241;52.684;9.758;2022-11-20T01:01:25;6.63;;;5.37;;
5650;SDS011;40241;52.684;9.758;2022-11-20T01:03:51;8.13;;;6.20;;
5650;SDS011;40241;52.684;9.758;2022-11-20T01:06:19;9.40;;;6.10;;
5650;SDS011;40241;52.684;9.758;2022-11-20T01:08:54;8.07;;;6.37;;
5650;SDS011;40241;52.684;9.758;2022-11-20T01:11:22;7.43;;;6.10;;
5650;SDS011;40241;52.684;9.758;2022-11-20T01:13:51;9.53;;;6.47;;
5650;SDS011;40241;52.684;9.758;2022-11-20T01:16:19;10.00;;;6.23;;
5650;SDS011;40241;52.684;9.758;2022-11-20T01:18:48;9.30;;;6.57;;
5650;SDS011;40241;52.684;9.758;2022-11-20T01:21:22;8.20;;;5.60;;
5650;SDS011;40241;52.684;9.758;2022-11-20T01:23:50;7.90;;;6.03;;
5650;SDS011;40241;52.684;9.758;2022-11-20T01:26:17;8.73;;;6.37;;
5650;SDS011;40241;52.684;9.758;2022-11-20T01:28:54;6.30;;;5.40;;
5650;SDS011;40241;52.684;9.758;2022-11-20T01:31:24;10.43;;;6.00;;
5650;SDS011;40241;52.684;9.758;2022-11-20T01:33:52;9.00;;;6.93;;
5650;SDS011;40241;52.684;9.758;2022-11-20T01:36:20;8.70;;;7.07;;
5650;SDS011;40241;52.684;9.758;2022-11-20T01:38:47;7.27;;;5.93;;
5650;SDS011;40241;52.684;9.758;2022-11-20T01:41:16;7.70;;;6.30;;
5650;SDS011;40241;52.684;9.758;2022-11-20T01:44:01;10.23;;;6.90;;
5650;SDS011;40241;52.684;9.758;2022-11-20T01:46:27;8.97;;;5.80;;
5650;SDS011;40241;52.684;9.758;2022-11-20T01:51:21;8.80;;;6.67;;
5650;SDS011;40241;52.684;9.758;2022-11-20T01:53:51;8.47;;;6.57;;
5650;SDS011;40241;52.684;9.758;2022-11-20T01:56:19;8.87;;;6.57;;
5650;SDS011;40241;52.684;9.758;2022-11-20T01:58:49;8.73;;;6.03;;
5650;SDS011;40241;52.684;9.758;2022-11-20T02:01:20;11.70;;;7.17;;
5650;SDS011;40241;52.684;9.758;2022-11-20T02:03:45;8.53;;;6.60;;
5650;SDS011;40241;52.684;9.758;2022-11-20T02:08:50;8.53;;;6.30;;
5650;SDS011;40241;52.684;9.758;2022-11-20T02:11:16;8.20;;;6.20;;
5650;SDS011;40241;52.684;9.758;2022-11-20T02:13:42;11.10;;;7.33;;
5650;SDS011;40241;52.684;9.758;2022-11-20T02:16:09;11.30;;;6.63;;
5650;SDS011;40241;52.684;9.758;2022-11-20T02:18:40;10.63;;;6.97;;
5650;SDS011;40241;52.684;9.758;2022-11-20T02:21:13;11.10;;;6.97;;
5650;SDS011;40241;52.684;9.758;2022-11-20T02:26:33;7.83;;;6.27;;
5650;SDS011;40241;52.684;9.758;2022-11-20T02:29:04;10.60;;;6.83;;
5650;SDS011;40241;52.684;9.758;2022-11-20T02:31:34;11.23;;;7.70;;
5650;SDS011;40241;52.684;9.758;2022-11-20T02:34:02;12.00;;;7.87;;
5650;SDS011;40241;52.684;9.758;2022-11-20T02:36:27;10.07;;;7.30;;
5650;SDS011;40241;52.684;9.758;2022-11-20T02:38:56;10.30;;;6.90;;
5650;SDS011;40241;52.684;9.758;2022-11-20T02:41:29;9.17;;;6.30;;
5650;SDS011;40241;52.684;9.758;2022-11-20T02:43:56;9.50;;;7.10;;
5650;SDS011;40241;52.684;9.758;2022-11-20T02:46:21;10.33;;;6.63;;
5650;SDS011;40241;52.684;9.758;2022-11-20T02:48:47;9.37;;;6.60;;
5650;SDS011;40241;52.684;9.758;2022-11-20T02:51:12;9.80;;;6.27;;
5650;SDS011;40241;52.684;9.758;2022-11-20T02:53:38;8.43;;;6.27;;
5650;SDS011;40241;52.684;9.758;2022-11-20T02:56:03;8.67;;;6.53;;
5650;SDS011;40241;52.684;9.758;2022-11-20T02:58:29;11.50;;;7.77;;
5650;SDS011;40241;52.684;9.758;2022-11-20T03:00:55;10.73;;;7.43;;
5650;SDS011;40241;52.684;9.758;2022-11-20T03:03:20;9.63;;;7.33;;
5650;SDS011;40241;52.684;9.758;2022-11-20T03:05:46;14.00;;;6.93;;
5650;SDS011;40241;52.684;9.758;2022-11-20T03:08:11;10.97;;;7.30;;
5650;SDS011;40241;52.684;9.758;2022-11-20T03:10:37;12.90;;;7.60;;
5650;SDS011;40241;52.684;9.758;2022-11-20T03:13:02;9.10;;;6.80;;
5650;SDS011;40241;52.684;9.758;2022-11-20T03:15:28;9.70;;;6.80;;
5650;SDS011;40241;52.684;9.758;2022-11-20T03:17:54;9.73;;;7.00;;
5650;SDS011;40241;52.684;9.758;2022-11-20T03:20:20;8.47;;;6.00;;
5650;SDS011;40241;52.684;9.758;2022-11-20T03:22:45;9.77;;;7.00;;
5650;SDS011;40241;52.684;9.758;2022-11-20T03:25:11;8.40;;;6.57;;
5650;SDS011;40241;52.684;9.758;2022-11-20T03:27:36;7.50;;;6.00;;
5650;SDS011;40241;52.684;9.758;2022-11-20T03:30:02;9.47;;;6.77;;
5650;SDS011;40241;52.684;9.758;2022-11-20T03:32:28;9.37;;;7.60;;
5650;SDS011;40241;52.684;9.758;2022-11-20T03:34:54;9.60;;;6.90;;
5650;SDS011;40241;52.684;9.758;2022-11-20T03:37:19;10.03;;;6.83;;
5650;SDS011;40241;52.684;9.758;2022-11-20T03:39:45;10.97;;;7.60;;
5650;SDS011;40241;52.684;9.758;2022-11-20T03:42:10;11.47;;;7.27;;
5650;SDS011;40241;52.684;9.758;2022-11-20T03:44:56;11.30;;;7.50;;
5650;SDS011;40241;52.684;9.758;2022-11-20T03:47:21;11.07;;;7.80;;
5650;SDS011;40241;52.684;9.758;2022-11-20T03:49:47;8.77;;;7.00;;
5650;SDS011;40241;52.684;9.758;2022-11-20T03:52:12;8.27;;;6.83;;
5650;SDS011;40241;52.684;9.758;2022-11-20T03:54:38;10.10;;;7.17;;
5650;SDS011;40241;52.684;9.758;2022-11-20T03:57:04;9.20;;;6.90;;
5650;SDS011;40241;52.684;9.758;2022-11-20T03:59:29;8.97;;;6.70;;
5650;SDS011;40241;52.684;9.758;2022-11-20T04:01:55;9.07;;;6.90;;
5650;SDS011;40241;52.684;9.758;2022-11-20T04:04:20;9.37;;;6.10;;
5650;SDS011;40241;52.684;9.758;2022-11-20T04:06:46;8.77;;;7.03;;
5650;SDS011;40241;52.684;9.758;2022-11-20T04:09:12;10.07;;;6.60;;
5650;SDS011;40241;52.684;9.758;2022-11-20T04:11:39;9.07;;;6.50;;
5650;SDS011;40241;52.684;9.758;2022-11-20T04:14:05;8.43;;;6.50;;
5650;SDS011;40241;52.684;9.758;2022-11-20T04:16:37;9.10;;;6.50;;
5650;SDS011;40241;52.684;9.758;2022-11-20T04:19:03;12.07;;;7.93;;
5650;SDS011;40241;52.684;9.758;2022-11-20T04:21:31;8.97;;;6.70;;
5650;SDS011;40241;52.684;9.758;2022-11-20T04:23:57;10.10;;;7.67;;
5650;SDS011;40241;52.684;9.758;2022-11-20T04:26:23;10.23;;;7.60;;
5650;SDS011;40241;52.684;9.758;2022-11-20T04:28:50;9.70;;;7.17;;
5650;SDS011;40241;52.684;9.758;2022-11-20T04:31:17;9.77;;;6.87;;
5650;SDS011;40241;52.684;9.758;2022-11-20T04:33:45;10.63;;;7.43;;
5650;SDS011;40241;52.684;9.758;2022-11-20T04:36:12;9.20;;;6.67;;
5650;SDS011;40241;52.684;9.758;2022-11-20T04:38:39;11.67;;;6.93;;
5650;SDS011;40241;52.684;9.758;2022-11-20T04:41:08;8.10;;;6.30;;
5650;SDS011;40241;52.684;9.758;2022-11-20T04:43:39;8.60;;;6.40;;
5650;SDS011;40241;52.684;9.758;2022-11-20T04:46:04;9.37;;;7.17;;
5650;SDS011;40241;52.684;9.758;2022-11-20T04:48:30;9.80;;;6.97;;
5650;SDS011;40241;52.684;9.758;2022-11-20T04:50:55;10.87;;;7.40;;
5650;SDS011;40241;52.684;9.758;2022-11-20T04:53:21;8.53;;;6.30;;
5650;SDS011;40241;52.684;9.758;2022-11-20T04:55:48;10.47;;;6.90;;
5650;SDS011;40241;52.684;9.758;2022-11-20T04:58:14;9.27;;;6.83;;
5650;SDS011;40241;52.684;9.758;2022-11-20T05:00:40;8.27;;;6.77;;
5650;SDS011;40241;52.684;9.758;2022-11-20T05:03:05;9.00;;;7.00;;
5650;SDS011;40241;52.684;9.758;2022-11-20T05:05:31;9.93;;;6.80;;
5650;SDS011;40241;52.684;9.758;2022-11-20T05:07:59;8.60;;;6.67;;
5650;SDS011;40241;52.684;9.758;2022-11-20T05:10:25;10.17;;;7.20;;
5650;SDS011;40241;52.684;9.758;2022-11-20T05:12:51;11.10;;;7.60;;
5650;SDS011;40241;52.684;9.758;2022-11-20T05:15:16;10.77;;;7.30;;
5650;SDS011;40241;52.684;9.758;2022-11-20T05:17:46;9.30;;;6.87;;
5650;SDS011;40241;52.684;9.758;2022-11-20T05:20:13;8.80;;;7.50;;
5650;SDS011;40241;52.684;9.758;2022-11-20T05:22:39;11.23;;;7.40;;
5650;SDS011;40241;52.684;9.758;2022-11-20T05:25:04;9.10;;;6.80;;
5650;SDS011;40241;52.684;9.758;2022-11-20T05:27:30;10.70;;;7.17;;
5650;SDS011;40241;52.684;9.758;2022-11-20T05:29:55;10.50;;;7.00;;
5650;SDS011;40241;52.684;9.758;2022-11-20T05:32:21;8.23;;;6.80;;
5650;SDS011;40241;52.684;9.758;2022-11-20T05:34:50;15.30;;;10.43;;
5650;SDS011;40241;52.684;9.758;2022-11-20T05:37:16;16.10;;;10.33;;
5650;SDS011;40241;52.684;9.758;2022-11-20T05:39:41;17.30;;;11.03;;
5650;SDS011;40241;52.684;9.758;2022-11-20T05:42:07;12.93;;;8.90;;
5650;SDS011;40241;52.684;9.758;2022-11-20T05:44:51;13.90;;;9.47;;
5650;SDS011;40241;52.684;9.758;2022-11-20T05:47:16;10.67;;;7.70;;
5650;SDS011;40241;52.684;9.758;2022-11-20T05:49:42;9.40;;;6.97;;
5650;SDS011;40241;52.684;9.758;2022-11-20T05:52:07;11.67;;;7.97;;
5650;SDS011;40241;52.684;9.758;2022-11-20T05:54:33;11.77;;;7.20;;
5650;SDS011;40241;52.684;9.758;2022-11-20T05:56:58;9.00;;;6.73;;
5650;SDS011;40241;52.684;9.758;2022-11-20T05:59:24;9.90;;;7.10;;
5650;SDS011;40241;52.684;9.758;2022-11-20T06:01:49;10.70;;;7.33;;
5650;SDS011;40241;52.684;9.758;2022-11-20T06:04:14;9.23;;;7.00;;
5650;SDS011;40241;52.684;9.758;2022-11-20T06:06:40;9.93;;;6.87;;
5650;SDS011;40241;52.684;9.758;2022-11-20T06:09:06;8.53;;;6.80;;
5650;SDS011;40241;52.684;9.758;2022-11-20T06:11:31;9.50;;;6.70;;
5650;SDS011;40241;52.684;9.758;2022-11-20T06:13:57;9.47;;;7.23;;
5650;SDS011;40241;52.684;9.758;2022-11-20T06:16:22;8.43;;;6.30;;
5650;SDS011;40241;52.684;9.758;2022-11-20T06:18:48;11.73;;;7.03;;
5650;SDS011;40241;52.684;9.758;2022-11-20T06:21:15;9.50;;;6.97;;
5650;SDS011;40241;52.684;9.758;2022-11-20T06:23:43;12.10;;;8.23;;
5650;SDS011;40241;52.684;9.758;2022-11-20T06:26:10;8.13;;;6.77;;
5650;SDS011;40241;52.684;9.758;2022-11-20T06:28:37;10.40;;;7.77;;
5650;SDS011;40241;52.684;9.758;2022-11-20T06:31:03;10.40;;;7.83;;
5650;SDS011;40241;52.684;9.758;2022-11-20T06:33:29;11.37;;;7.17;;
5650;SDS011;40241;52.684;9.758;2022-11-20T06:35:59;9.70;;;7.27;;
5650;SDS011;40241;52.684;9.758;2022-11-20T06:38:26;10.33;;;6.60;;
5650;SDS011;40241;52.684;9.758;2022-11-20T06:40:52;9.50;;;6.90;;
5650;SDS011;40241;52.684;9.758;2022-11-20T06:43:18;10.60;;;8.00;;
5650;SDS011;40241;52.684;9.758;2022-11-20T06:45:44;12.03;;;7.73;;
5650;SDS011;40241;52.684;9.758;2022-11-20T06:48:09;12.87;;;8.33;;
5650;SDS011;40241;52.684;9.758;2022-11-20T06:50:37;10.07;;;7.50;;
5650;SDS011;40241;52.684;9.758;2022-11-20T06:53:03;11.07;;;8.37;;
5650;SDS011;40241;52.684;9.758;2022-11-20T06:55:29;13.07;;;8.47;;
5650;SDS011;40241;52.684;9.758;2022-11-20T06:57:56;10.33;;;7.90;;
5650;SDS011;40241;52.684;9.758;2022-11-20T07:00:21;9.13;;;6.63;;
5650;SDS011;40241;52.684;9.758;2022-11-20T07:02:47;11.70;;;7.70;;
5650;SDS011;40241;52.684;9.758;2022-11-20T07:05:12;10.43;;;7.53;;
5650;SDS011;40241;52.684;9.758;2022-11-20T07:07:38;11.00;;;7.23;;
5650;SDS011;40241;52.684;9.758;2022-11-20T07:10:04;15.10;;;7.40;;
5650;SDS011;40241;52.684;9.758;2022-11-20T07:12:30;9.00;;;6.70;;
5650;SDS011;40241;52.684;9.758;2022-11-20T07:14:55;9.13;;;6.57;;
5650;SDS011;40241;52.684;9.758;2022-11-20T07:17:21;9.13;;;6.93;;
5650;SDS011;40241;52.684;9.758;2022-11-20T07:19:47;10.83;;;7.80;;
5650;SDS011;40241;52.684;9.758;2022-11-20T07:22:12;13.93;;;7.83;;
5650;SDS011;40241;52.684;9.758;2022-11-20T07:24:38;8.70;;;6.60;;
5650;SDS011;40241;52.684;9.758;2022-11-20T07:27:04;11.13;;;7.70;;
5650;SDS011;40241;52.684;9.758;2022-11-20T07:29:29;9.60;;;7.13;;
5650;SDS011;40241;52.684;9.758;2022-11-20T07:31:55;9.37;;;6.83;;
5650;SDS011;40241;52.684;9.758;2022-11-20T07:34:21;12.30;;;7.47;;
5650;SDS011;40241;52.684;9.758;2022-11-20T07:36:47;8.40;;;6.33;;
5650;SDS011;40241;52.684;9.758;2022-11-20T07:39:13;10.67;;;7.50;;
5650;SDS011;40241;52.684;9.758;2022-11-20T07:41:38;8.23;;;6.30;;
5650;SDS011;40241;52.684;9.758;2022-11-20T07:44:04;9.53;;;6.40;;
5650;SDS011;40241;52.684;9.758;2022-11-20T07:46:29;8.90;;;6.60;;
5650;SDS011;40241;52.684;9.758;2022-11-20T07:48:55;9.10;;;6.67;;
5650;SDS011;40241;52.684;9.758;2022-11-20T07:51:20;11.03;;;7.03;;
5650;SDS011;40241;52.684;9.758;2022-11-20T07:53:46;9.63;;;7.23;;
5650;SDS011;40241;52.684;9.758;2022-11-20T07:56:11;9.97;;;6.87;;
5650;SDS011;40241;52.684;9.758;2022-11-20T07:58:39;11.23;;;6.70;;
5650;SDS011;40241;52.684;9.758;2022-11-20T08:01:05;9.70;;;7.20;;
5650;SDS011;40241;52.684;9.758;2022-11-20T08:03:32;9.17;;;7.07;;
5650;SDS011;40241;52.684;9.758;2022-11-20T08:06:01;7.83;;;6.17;;
5650;SDS011;40241;52.684;9.758;2022-11-20T08:08:27;9.23;;;6.77;;
5650;SDS011;40241;52.684;9.758;2022-11-20T08:10:53;9.63;;;6.70;;
5650;SDS011;40241;52.684;9.758;2022-11-20T08:13:39;8.20;;;6.10;;
5650;SDS011;40241;52.684;9.758;2022-11-20T08:16:23;9.77;;;6.77;;
5650;SDS011;40241;52.684;9.758;2022-11-20T08:18:49;10.40;;;8.33;;
5650;SDS011;40241;52.684;9.758;2022-11-20T08:21:57;9.13;;;7.00;;
5650;SDS011;40241;52.684;9.758;2022-11-20T08:24:22;8.70;;;7.10;;
5650;SDS011;40241;52.684;9.758;2022-11-20T08:26:48;9.37;;;6.23;;
5650;SDS011;40241;52.684;9.758;2022-11-20T08:29:13;9.27;;;6.83;;
5650;SDS011;40241;52.684;9.758;2022-11-20T08:31:39;9.30;;;7.03;;
5650;SDS011;40241;52.684;9.758;2022-11-20T08:34:04;7.07;;;6.10;;
5650;SDS011;40241;52.684;9.758;2022-11-20T08:36:32;9.30;;;6.57;;
5650;SDS011;40241;52.684;9.758;2022-11-20T08:38:58;9.53;;;6.97;;
5650;SDS011;40241;52.684;9.758;2022-11-20T08:41:24;8.23;;;5.60;;
5650;SDS011;40241;52.684;9.758;2022-11-20T08:43:51;8.23;;;6.77;;
5650;SDS011;40241;52.684;9.758;2022-11-20T08:46:22;9.03;;;7.00;;
5650;SDS011;40241;52.684;9.758;2022-11-20T08:48:49;8.13;;;6.50;;
5650;SDS011;40241;52.684;9.758;2022-11-20T08:51:14;9.17;;;7.60;;
5650;SDS011;40241;52.684;9.758;2022-11-20T08:53:41;13.60;;;8.50;;
5650;SDS011;40241;52.684;9.758;2022-11-20T08:56:06;9.37;;;7.10;;
5650;SDS011;40241;52.684;9.758;2022-11-20T08:58:32;9.60;;;7.13;;
5650;SDS011;40241;52.684;9.758;2022-11-20T09:00:58;7.60;;;6.17;;
5650;SDS011;40241;52.684;9.758;2022-11-20T09:03:23;8.90;;;7.00;;
5650;SDS011;40241;52.684;9.758;2022-11-20T09:05:56;9.63;;;7.03;;
5650;SDS011;40241;52.684;9.758;2022-11-20T09:08:25;9.67;;;7.30;;
5650;SDS011;40241;52.684;9.758;2022-11-20T09:10:52;10.50;;;7.30;;
5650;SDS011;40241;52.684;9.758;2022-11-20T09:13:19;10.10;;;7.47;;
5650;SDS011;40241;52.684;9.758;2022-11-20T09:15:45;10.40;;;8.10;;
5650;SDS011;40241;52.684;9.758;2022-11-20T09:18:11;10.97;;;7.67;;
5650;SDS011;40241;52.684;9.758;2022-11-20T09:20:36;10.10;;;7.90;;
5650;SDS011;40241;52.684;9.758;2022-11-20T09:23:02;9.60;;;7.60;;
5650;SDS011;40241;52.684;9.758;2022-11-20T09:25:27;10.40;;;6.43;;
5650;SDS011;40241;52.684;9.758;2022-11-20T09:27:56;8.17;;;6.13;;
5650;SDS011;40241;52.684;9.758;2022-11-20T09:30:22;7.97;;;5.93;;
5650;SDS011;40241;52.684;9.758;2022-11-20T09:32:48;7.23;;;5.60;;
5650;SDS011;40241;52.684;9.758;2022-11-20T09:35:14;7.30;;;5.27;;
5650;SDS011;40241;52.684;9.758;2022-11-20T09:37:39;9.57;;;5.80;;
5650;SDS011;40241;52.684;9.758;2022-11-20T09:40:05;8.70;;;5.63;;
5650;SDS011;40241;52.684;9.758;2022-11-20T09:51:05;8.30;;;5.70;;
5650;SDS011;40241;52.684;9.758;2022-11-20T09:56:36;7.80;;;5.20;;
5650;SDS011;40241;52.684;9.758;2022-11-20T09:59:04;5.67;;;5.10;;
5650;SDS011;40241;52.684;9.758;2022-11-20T10:01:33;6.90;;;5.67;;
5650;SDS011;40241;52.684;9.758;2022-11-20T10:04:03;8.47;;;6.03;;
5650;SDS011;40241;52.684;9.758;2022-11-20T10:06:52;7.70;;;5.93;;
5650;SDS011;40241;52.684;9.758;2022-11-20T10:09:40;6.70;;;4.87;;
5650;SDS011;40241;52.684;9.758;2022-11-20T10:15:04;6.20;;;5.00;;
5650;SDS011;40241;52.684;9.758;2022-11-20T10:18:11;5.40;;;4.30;;
5650;SDS011;40241;52.684;9.758;2022-11-20T10:20:53;4.47;;;3.97;;
5650;SDS011;40241;52.684;9.758;2022-11-20T10:29:21;9.33;;;4.47;;
5650;SDS011;40241;52.684;9.758;2022-11-20T10:32:23;5.40;;;4.40;;
5650;SDS011;40241;52.684;9.758;2022-11-20T10:35:00;4.23;;;3.70;;
5650;SDS011;40241;52.684;9.758;2022-11-20T10:37:33;5.50;;;4.27;;
5650;SDS011;40241;52.684;9.758;2022-11-20T10:40:27;6.47;;;4.43;;
5650;SDS011;40241;52.684;9.758;2022-11-20T10:43:25;3.93;;;3.60;;
5650;SDS011;40241;52.684;9.758;2022-11-20T10:45:59;3.93;;;3.33;;
5650;SDS011;40241;52.684;9.758;2022-11-20T10:48:29;4.07;;;3.50;;
5650;SDS011;40241;52.684;9.758;2022-11-20T10:56:27;3.43;;;3.00;;
5650;SDS011;40241;52.684;9.758;2022-11-20T11:04:58;3.20;;;2.90;;
5650;SDS011;40241;52.684;9.758;2022-11-20T11:07:36;4.60;;;4.20;;
5650;SDS011;40241;52.684;9.758;2022-11-20T11:10:12;4.93;;;3.67;;
5650;SDS011;40241;52.684;9.758;2022-11-20T11:12:50;4.00;;;3.67;;
5650;SDS011;40241;52.684;9.758;2022-11-20T11:15:29;3.23;;;3.03;;
5650;SDS011;40241;52.684;9.758;2022-11-20T11:18:09;5.20;;;3.70;;
5650;SDS011;40241;52.684;9.758;2022-11-20T11:20:36;4.23;;;3.20;;
5650;SDS011;40241;52.684;9.758;2022-11-20T11:23:01;4.30;;;3.27;;
5650;SDS011;40241;52.684;9.758;2022-11-20T11:28:01;5.40;;;3.63;;
5650;SDS011;40241;52.684;9.758;2022-11-20T11:30:28;3.80;;;3.43;;
5650;SDS011;40241;52.684;9.758;2022-11-20T11:33:02;3.57;;;3.27;;
5650;SDS011;40241;52.684;9.758;2022-11-20T11:35:30;4.20;;;3.80;;
5650;SDS011;40241;52.684;9.758;2022-11-20T11:38:03;3.93;;;3.47;;
5650;SDS011;40241;52.684;9.758;2022-11-20T11:40:36;4.10;;;3.10;;
5650;SDS011;40241;52.684;9.758;2022-11-20T11:43:05;4.57;;;3.70;;
5650;SDS011;40241;52.684;9.758;2022-11-20T11:45:53;6.80;;;4.07;;
5650;SDS011;40241;52.684;9.758;2022-11-20T11:48:20;4.50;;;3.33;;
5650;SDS011;40241;52.684;9.758;2022-11-20T11:50:49;4.23;;;3.83;;
5650;SDS011;40241;52.684;9.758;2022-11-20T11:53:17;4.87;;;3.40;;
5650;SDS011;40241;52.684;9.758;2022-11-20T12:00:55;7.30;;;3.10;;
5650;SDS011;40241;52.684;9.758;2022-11-20T12:03:42;5.50;;;4.20;;
5650;SDS011;40241;52.684;9.758;2022-11-20T12:06:13;4.80;;;3.90;;
5650;SDS011;40241;52.684;9.758;2022-11-20T12:11:06;6.07;;;4.37;;
5650;SDS011;40241;52.684;9.758;2022-11-20T12:16:48;4.00;;;3.60;;
5650;SDS011;40241;52.684;9.758;2022-11-20T12:19:15;4.00;;;3.33;;
5650;SDS011;40241;52.684;9.758;2022-11-20T12:22:02;4.60;;;3.90;;
5650;SDS011;40241;52.684;9.758;2022-11-20T12:30:32;4.00;;;3.60;;
5650;SDS011;40241;52.684;9.758;2022-11-20T12:36:19;7.60;;;4.13;;
5650;SDS011;40241;52.684;9.758;2022-11-20T12:53:10;5.80;;;3.97;;
5650;SDS011;40241;52.684;9.758;2022-11-20T13:06:37;4.87;;;4.33;;
5650;SDS011;40241;52.684;9.758;2022-11-20T13:09:06;5.50;;;4.70;;
5650;SDS011;40241;52.684;9.758;2022-11-20T13:11:47;4.00;;;3.60;;
5650;SDS011;40241;52.684;9.758;2022-11-20T13:17:04;6.47;;;4.90;;
5650;SDS011;40241;52.684;9.758;2022-11-20T13:19:36;5.70;;;4.70;;
5650;SDS011;40241;52.684;9.758;2022-11-20T13:22:03;8.00;;;5.23;;
5650;SDS011;40241;52.684;9.758;2022-11-20T13:24:29;7.07;;;5.03;;
5650;SDS011;40241;52.684;9.758;2022-11-20T13:27:00;5.80;;;4.60;;
5650;SDS011;40241;52.684;9.758;2022-11-20T13:29:27;5.70;;;4.47;;
5650;SDS011;40241;52.684;9.758;2022-11-20T13:32:01;6.43;;;4.63;;
5650;SDS011;40241;52.684;9.758;2022-11-20T13:34:53;5.17;;;4.20;;
5650;SDS011;40241;52.684;9.758;2022-11-20T13:37:33;4.60;;;3.90;;
5650;SDS011;40241;52.684;9.758;2022-11-20T13:42:33;6.83;;;4.30;;
5650;SDS011;40241;52.684;9.758;2022-11-20T13:45:08;6.83;;;4.50;;
5650;SDS011;40241;52.684;9.758;2022-11-20T13:47:36;7.40;;;5.07;;
5650;SDS011;40241;52.684;9.758;2022-11-20T13:50:02;7.33;;;4.27;;
5650;SDS011;40241;52.684;9.758;2022-11-20T13:52:39;5.87;;;4.30;;
5650;SDS011;40241;52.684;9.758;2022-11-20T14:00:55;6.40;;;4.57;;
5650;SDS011;40241;52.684;9.758;2022-11-20T14:03:25;6.20;;;4.87;;
5650;SDS011;40241;52.684;9.758;2022-11-20T14:05:56;4.27;;;3.87;;
5650;SDS011;40241;52.684;9.758;2022-11-20T14:08:41;6.27;;;4.77;;
5650;SDS011;40241;52.684;9.758;2022-11-20T14:11:17;7.90;;;4.83;;
5650;SDS011;40241;52.684;9.758;2022-11-20T14:14:04;10.33;;;7.73;;
5650;SDS011;40241;52.684;9.758;2022-11-20T14:16:38;8.70;;;5.97;;
5650;SDS011;40241;52.684;9.758;2022-11-20T14:21:45;6.13;;;5.03;;
5650;SDS011;40241;52.684;9.758;2022-11-20T14:24:12;7.00;;;5.63;;
5650;SDS011;40241;52.684;9.758;2022-11-20T14:26:44;7.97;;;5.80;;
5650;SDS011;40241;52.684;9.758;2022-11-20T14:29:21;6.40;;;5.00;;
5650;SDS011;40241;52.684;9.758;2022-11-20T14:31:51;5.83;;;4.90;;
5650;SDS011;40241;52.684;9.758;2022-11-20T14:34:19;6.17;;;5.13;;
5650;SDS011;40241;52.684;9.758;2022-11-20T14:36:48;5.73;;;4.80;;
5650;SDS011;40241;52.684;9.758;2022-11-20T14:39:20;8.67;;;5.57;;
5650;SDS011;40241;52.684;9.758;2022-11-20T14:41:51;6.00;;;5.40;;
5650;SDS011;40241;52.684;9.758;2022-11-20T14:44:17;8.53;;;5.97;;
5650;SDS011;40241;52.684;9.758;2022-11-20T14:46:47;8.00;;;6.27;;
5650;SDS011;40241;52.684;9.758;2022-11-20T14:49:12;10.63;;;7.17;;
5650;SDS011;40241;52.684;9.758;2022-11-20T14:51:39;8.13;;;5.87;;
5650;SDS011;40241;52.684;9.758;2022-11-20T14:56:36;6.27;;;5.40;;
5650;SDS011;40241;52.684;9.758;2022-11-20T14:59:02;9.73;;;5.90;;
5650;SDS011;40241;52.684;9.758;2022-11-20T15:01:28;12.07;;;7.77;;
5650;SDS011;40241;52.684;9.758;2022-11-20T15:06:36;6.93;;;6.03;;
5650;SDS011;40241;52.684;9.758;2022-11-20T15:09:03;7.00;;;5.00;;
5650;SDS011;40241;52.684;9.758;2022-11-20T15:11:31;6.50;;;4.90;;
5650;SDS011;40241;52.684;9.758;2022-11-20T15:14:01;5.53;;;4.73;;
5650;SDS011;40241;52.684;9.758;2022-11-20T15:16:29;8.03;;;5.50;;
5650;SDS011;40241;52.684;9.758;2022-11-20T15:18:55;6.90;;;4.97;;
5650;SDS011;40241;52.684;9.758;2022-11-20T15:21:21;5.33;;;4.53;;
5650;SDS011;40241;52.684;9.758;2022-11-20T15:23:47;6.73;;;5.37;;
5650;SDS011;40241;52.684;9.758;2022-11-20T15:26:13;6.43;;;5.00;;
5650;SDS011;40241;52.684;9.758;2022-11-20T15:28:43;6.57;;;4.83;;
5650;SDS011;40241;52.684;9.758;2022-11-20T15:31:13;6.57;;;5.70;;
5650;SDS011;40241;52.684;9.758;2022-11-20T15:33:40;6.23;;;5.23;;
5650;SDS011;40241;52.684;9.758;2022-11-20T15:36:05;5.70;;;4.90;;
5650;SDS011;40241;52.684;9.758;2022-11-20T15:38:31;5.27;;;4.77;;
5650;SDS011;40241;52.684;9.758;2022-11-20T15:40:57;7.33;;;5.47;;
5650;SDS011;40241;52.684;9.758;2022-11-20T15:43:22;7.60;;;4.70;;
5650;SDS011;40241;52.684;9.758;2022-11-20T15:48:15;6.90;;;5.00;;
5650;SDS011;40241;52.684;9.758;2022-11-20T15:50:54;5.90;;;5.00;;
5650;SDS011;40241;52.684;9.758;2022-11-20T15:53:27;8.13;;;5.43;;
5650;SDS011;40241;52.684;9.758;2022-11-20T15:55:53;5.63;;;4.97;;
5650;SDS011;40241;52.684;9.758;2022-11-20T15:58:18;8.30;;;5.77;;
5650;SDS011;40241;52.684;9.758;2022-11-20T16:00:44;6.10;;;5.00;;
5650;SDS011;40241;52.684;9.758;2022-11-20T16:03:10;7.60;;;5.83;;
5650;SDS011;40241;52.684;9.758;2022-11-20T16:05:37;7.40;;;5.87;;
5650;SDS011;40241;52.684;9.758;2022-11-20T16:08:02;8.03;;;6.10;;
5650;SDS011;40241;52.684;9.758;2022-11-20T16:10:28;5.90;;;5.30;;
5650;SDS011;40241;52.684;9.758;2022-11-20T16:12:53;6.53;;;5.10;;
5650;SDS011;40241;52.684;9.758;2022-11-20T16:15:38;8.47;;;5.60;;
5650;SDS011;40241;52.684;9.758;2022-11-20T16:18:10;8.50;;;5.67;;
5650;SDS011;40241;52.684;9.758;2022-11-20T16:20:37;9.97;;;5.40;;
5650;SDS011;40241;52.684;9.758;2022-11-20T16:23:03;8.80;;;5.83;;
5650;SDS011;40241;52.684;9.758;2022-11-20T16:25:29;7.80;;;5.10;;
5650;SDS011;40241;52.684;9.758;2022-11-20T16:27:55;7.57;;;4.93;;
5650;SDS011;40241;52.684;9.758;2022-11-20T16:30:20;6.40;;;5.00;;
5650;SDS011;40241;52.684;9.758;2022-11-20T16:32:46;6.80;;;4.63;;
5650;SDS011;40241;52.684;9.758;2022-11-20T16:35:11;10.87;;;5.67;;
5650;SDS011;40241;52.684;9.758;2022-11-20T16:37:37;5.90;;;5.27;;
5650;SDS011;40241;52.684;9.758;2022-11-20T16:40:03;8.83;;;5.57;;
5650;SDS011;40241;52.684;9.758;2022-11-20T16:42:32;6.40;;;4.73;;
5650;SDS011;40241;52.684;9.758;2022-11-20T16:44:58;9.47;;;5.40;;
5650;SDS011;40241;52.684;9.758;2022-11-20T16:47:24;8.23;;;5.37;;
5650;SDS011;40241;52.684;9.758;2022-11-20T16:49:49;6.87;;;5.20;;
5650;SDS011;40241;52.684;9.758;2022-11-20T16:52:15;7.80;;;5.73;;
5650;SDS011;40241;52.684;9.758;2022-11-20T16:54:40;7.97;;;6.30;;